createdAt,value
2022-10-17T00:01:08.056Z,56.50
2022-10-17T00:06:13.891Z,59.65
2022-10-17T00:11:20.410Z,65.88
2022-10-17T00:16:24.525Z,56.81
2022-10-17T00:21:27.225Z,56.19
2022-10-17T00:26:30.096Z,59.83
2022-10-17T00:31:32.905Z,66.92
2022-10-17T00:36:35.547Z,59.32
2022-10-17T00:41:38.162Z,56.56
2022-10-17T00:46:40.812Z,58.56
2022-10-17T00:51:46.898Z,68.61
2022-10-17T00:56:50.309Z,60.21
2022-10-17T01:02:11.750Z,57.44
2022-10-17T01:07:14.757Z,59.62
2022-10-17T01:12:22.474Z,67.48
2022-10-17T01:17:59.219Z,57.86
2022-10-17T01:23:19.107Z,57.64
2022-10-17T01:28:40.050Z,59.67
2022-10-17T01:34:03.880Z,67.32
2022-10-17T01:39:34.400Z,57.05
2022-10-17T01:44:50.183Z,55.84
2022-10-17T01:49:55.275Z,58.07
2022-10-17T01:55:08.633Z,68.12
2022-10-17T02:00:17.789Z,60.62
2022-10-17T02:05:24.677Z,55.32
2022-10-17T02:10:53.586Z,57.83
2022-10-17T02:16:04.846Z,59.96
2022-10-17T02:21:14.360Z,69.98
2022-10-17T02:26:28.938Z,62.09
2022-10-17T02:31:39.211Z,55.05
2022-10-17T02:36:49.910Z,56.68
2022-10-17T02:41:56.670Z,61.21
2022-10-17T02:47:31.851Z,69.79
2022-10-17T02:52:48.586Z,60.28
2022-10-17T02:57:56.099Z,54.04
2022-10-17T03:02:58.780Z,55.93
2022-10-17T03:08:01.399Z,59.37
2022-10-17T03:13:04.025Z,69.55
2022-10-17T03:18:06.727Z,62.27
2022-10-17T03:23:09.392Z,55.10
2022-10-17T03:28:12.602Z,56.33
2022-10-17T03:33:15.273Z,58.90
2022-10-17T03:38:17.898Z,69.73
2022-10-17T03:43:20.498Z,61.82
2022-10-17T03:48:23.137Z,54.50
2022-10-17T03:53:25.793Z,55.96
2022-10-17T03:58:29.008Z,58.53
2022-10-17T04:03:32.004Z,68.58
2022-10-17T04:08:35.215Z,61.09
2022-10-17T04:13:37.851Z,54.50
2022-10-17T04:18:41.098Z,55.64
2022-10-17T04:23:43.721Z,57.80
2022-10-17T04:28:46.513Z,67.22
2022-10-17T04:33:50.530Z,59.65
2022-10-17T04:38:53.137Z,55.14
2022-10-17T04:43:55.733Z,57.71
2022-10-17T04:48:58.551Z,68.13
2022-10-17T04:54:01.194Z,61.61
2022-10-17T04:59:03.844Z,54.46
2022-10-17T05:04:06.511Z,57.16
2022-10-17T05:09:09.136Z,58.59
2022-10-17T05:14:11.834Z,68.29
2022-10-17T05:19:14.445Z,62.34
2022-10-17T05:24:17.232Z,53.66
2022-10-17T05:29:19.891Z,55.62
2022-10-17T05:34:22.526Z,57.91
2022-10-17T05:39:25.296Z,69.23
2022-10-17T05:44:28.230Z,62.24
2022-10-17T05:49:39.971Z,55.56
2022-10-17T05:54:47.658Z,57.82
2022-10-17T05:59:50.556Z,59.94
2022-10-17T06:04:53.361Z,69.51
2022-10-17T06:09:56.021Z,61.31
2022-10-17T06:14:59.114Z,54.37
2022-10-17T06:20:02.086Z,56.15
2022-10-17T06:25:05.181Z,58.81
2022-10-17T06:30:08.366Z,69.26
2022-10-17T06:35:11.048Z,62.07
2022-10-17T06:40:16.949Z,55.34
2022-10-17T06:45:19.583Z,57.60
2022-10-17T06:50:22.477Z,66.71
2022-10-17T06:55:25.163Z,59.77
2022-10-17T07:00:28.424Z,56.30
2022-10-17T07:05:31.176Z,59.37
2022-10-17T07:10:38.296Z,67.61
2022-10-17T07:15:42.195Z,60.59
2022-10-17T07:20:53.042Z,56.00
2022-10-17T07:26:01.633Z,59.89
2022-10-17T07:31:13.348Z,66.67
2022-10-17T07:36:16.815Z,58.99
2022-10-17T07:41:21.793Z,55.77
2022-10-17T07:46:24.901Z,59.91
2022-10-17T07:51:28.400Z,67.60
2022-10-17T07:56:31.649Z,60.25
2022-10-17T08:01:34.245Z,56.21
2022-10-17T08:06:36.940Z,60.13
2022-10-17T08:11:39.680Z,66.54
2022-10-17T08:16:43.261Z,58.04
2022-10-17T08:21:46.944Z,56.07
2022-10-17T08:26:51.830Z,60.87
2022-10-17T08:31:58.664Z,69.08
2022-10-17T08:37:04.220Z,61.10
2022-10-17T08:42:25.991Z,55.94
2022-10-17T08:47:45.555Z,58.60
2022-10-17T08:52:56.456Z,64.95
2022-10-17T08:57:59.241Z,56.67
2022-10-17T09:03:23.773Z,57.65
2022-10-17T09:08:44.452Z,59.20
2022-10-17T09:14:02.897Z,66.44
2022-10-17T09:19:24.467Z,56.29
2022-10-17T09:24:44.577Z,57.33
2022-10-17T09:29:49.998Z,59.29
2022-10-17T09:34:53.864Z,65.28
2022-10-17T09:39:56.955Z,56.05
2022-10-17T09:45:26.802Z,54.77
2022-10-17T09:50:35.021Z,58.89
2022-10-17T09:55:48.498Z,62.96
2022-10-17T10:00:51.214Z,52.81
2022-10-17T10:05:59.734Z,55.40
2022-10-17T10:11:06.558Z,58.80
2022-10-17T10:16:21.000Z,56.76
2022-10-17T10:21:26.830Z,58.84
2022-10-17T10:26:40.928Z,60.58
2022-10-17T10:31:44.138Z,57.50
2022-10-17T10:37:14.708Z,57.65
2022-10-17T10:42:27.159Z,54.46
2022-10-17T10:47:32.649Z,52.85
2022-10-17T10:52:46.337Z,49.45
2022-10-17T10:57:53.149Z,50.24
2022-10-17T11:03:12.826Z,47.65
2022-10-17T11:08:49.117Z,44.13
2022-10-17T11:14:00.739Z,42.48
2022-10-17T11:19:21.140Z,40.65
2022-10-17T11:24:27.936Z,39.29
2022-10-17T11:29:38.518Z,41.18
2022-10-17T11:34:48.230Z,40.84
2022-10-17T11:40:03.212Z,39.36
2022-10-17T11:45:14.112Z,37.07
2022-10-17T11:56:02.181Z,36.21
2022-10-17T12:01:19.834Z,35.03
2022-10-17T12:06:27.098Z,34.71
2022-10-17T12:11:58.329Z,35.24
2022-10-17T12:17:02.640Z,33.85
2022-10-17T12:22:28.689Z,35.57
2022-10-17T12:27:42.297Z,36.64
2022-10-17T12:33:06.172Z,38.04
2022-10-17T12:38:20.901Z,40.08
2022-10-17T12:43:29.670Z,42.26
2022-10-17T12:48:38.608Z,42.76
2022-10-17T12:54:02.689Z,42.29
2022-10-17T12:59:17.244Z,41.57
2022-10-17T13:04:20.831Z,43.51
2022-10-17T13:09:32.634Z,44.58
2022-10-17T13:14:35.440Z,44.84
2022-10-17T13:19:44.227Z,45.97
2022-10-17T13:24:48.179Z,47.55
2022-10-17T13:29:50.955Z,48.63
2022-10-17T13:35:09.405Z,49.62
2022-10-17T13:40:40.930Z,51.04
2022-10-17T13:45:39.695Z,51.92
2022-10-17T13:50:44.794Z,52.97
2022-10-17T13:56:15.753Z,53.99
2022-10-17T14:01:21.307Z,54.70
2022-10-17T14:06:31.352Z,55.32
2022-10-17T14:11:37.135Z,55.63
2022-10-17T14:16:42.170Z,55.89
2022-10-17T14:21:49.388Z,56.03
2022-10-17T14:26:54.308Z,56.58
2022-10-17T14:32:00.214Z,57.50
2022-10-17T14:37:10.043Z,58.07
2022-10-17T14:42:19.392Z,59.15
2022-10-17T14:47:42.601Z,59.09
2022-10-17T14:53:03.739Z,59.50
2022-10-17T14:58:17.731Z,59.76
2022-10-17T15:03:20.496Z,59.97
2022-10-17T15:08:24.238Z,60.54
2022-10-17T15:13:28.488Z,60.73
2022-10-17T15:18:32.609Z,60.91
2022-10-17T15:23:35.230Z,68.73
2022-10-17T15:28:37.905Z,61.22
2022-10-17T15:33:41.101Z,53.70
2022-10-17T15:38:43.798Z,54.61
2022-10-17T15:43:48.560Z,56.78
2022-10-17T15:48:51.759Z,57.84
2022-10-17T15:53:54.453Z,59.42
2022-10-17T15:58:58.219Z,60.64
2022-10-17T16:04:01.164Z,69.05
2022-10-17T16:09:03.983Z,60.79
2022-10-17T16:14:18.271Z,54.32
2022-10-17T16:19:21.783Z,54.83
2022-10-17T16:24:25.074Z,57.21
2022-10-17T16:29:27.680Z,58.71
2022-10-17T16:34:31.812Z,60.62
2022-10-17T16:39:34.496Z,68.71
2022-10-17T16:44:37.116Z,60.89
2022-10-17T16:49:42.900Z,54.32
2022-10-17T16:54:47.932Z,55.44
2022-10-17T16:59:50.630Z,58.23
2022-10-17T17:04:53.250Z,60.03
2022-10-17T17:09:56.437Z,68.04
2022-10-17T17:14:59.236Z,60.81
2022-10-17T17:20:01.944Z,54.23
2022-10-17T17:25:05.149Z,56.42
2022-10-17T17:30:08.552Z,58.84
2022-10-17T17:35:11.157Z,66.28
2022-10-17T17:40:13.892Z,60.17
2022-10-17T17:45:16.748Z,54.25
2022-10-17T17:50:19.770Z,57.29
2022-10-17T17:55:22.383Z,62.13
2022-10-17T18:00:25.318Z,58.47
2022-10-17T18:05:28.220Z,58.38
2022-10-17T18:10:30.815Z,61.71
2022-10-17T18:15:33.567Z,57.99
2022-10-17T18:20:41.057Z,59.72
2022-10-17T18:25:52.869Z,62.43
2022-10-17T18:30:58.250Z,58.46
2022-10-17T18:36:10.450Z,61.26
2022-10-17T18:41:16.593Z,60.56
2022-10-17T18:46:20.570Z,57.14
2022-10-17T18:51:24.896Z,61.98
2022-10-17T18:56:27.622Z,60.07
2022-10-17T19:01:30.332Z,59.92
2022-10-17T19:06:33.119Z,62.45
2022-10-17T19:11:37.418Z,57.07
2022-10-17T19:16:48.167Z,60.84
2022-10-17T19:21:51.880Z,60.85
2022-10-17T19:26:57.632Z,57.65
2022-10-17T19:32:01.095Z,61.87
2022-10-17T19:37:03.875Z,61.06
2022-10-17T19:42:07.139Z,57.46
2022-10-17T19:47:10.165Z,61.93
2022-10-17T19:52:13.354Z,60.86
2022-10-17T19:57:16.111Z,57.04
2022-10-17T20:02:18.777Z,61.62
2022-10-17T20:07:21.381Z,62.24
2022-10-17T20:12:24.096Z,57.25
2022-10-17T20:17:27.008Z,61.92
2022-10-17T20:22:30.198Z,60.03
2022-10-17T20:27:33.175Z,59.08
2022-10-17T20:32:39.461Z,63.15
2022-10-17T20:37:42.889Z,58.22
2022-10-17T20:42:45.672Z,60.56
2022-10-17T20:47:54.130Z,62.53
2022-10-17T20:53:12.349Z,57.39
2022-10-17T20:58:19.588Z,60.42
2022-10-17T21:03:22.491Z,62.71
2022-10-17T21:08:25.077Z,58.26
2022-10-17T21:13:27.673Z,62.04
2022-10-17T21:18:30.270Z,62.64
2022-10-17T21:23:32.865Z,57.00
2022-10-17T21:28:37.365Z,60.63
2022-10-17T21:33:41.738Z,63.42
2022-10-17T21:38:46.532Z,58.14
2022-10-17T21:43:53.704Z,58.91
2022-10-17T21:48:58.426Z,62.12
2022-10-17T21:54:01.073Z,57.23
2022-10-17T21:59:05.140Z,59.79
2022-10-17T22:04:11.256Z,63.02
2022-10-17T22:09:15.502Z,57.96
2022-10-17T22:14:21.171Z,60.99
2022-10-17T22:19:26.677Z,63.62
2022-10-17T22:24:29.341Z,58.12
2022-10-17T22:29:32.141Z,62.36
2022-10-17T22:34:34.922Z,60.00
2022-10-17T22:39:38.850Z,59.48
2022-10-17T22:44:41.487Z,65.55
2022-10-17T22:49:44.082Z,59.19
2022-10-17T22:54:46.702Z,58.59
2022-10-17T22:59:49.439Z,63.20
2022-10-17T23:04:52.071Z,61.27
2022-10-17T23:09:54.700Z,55.61
2022-10-17T23:14:57.347Z,59.67
2022-10-17T23:19:59.950Z,62.57
2022-10-17T23:25:02.840Z,58.33
2022-10-17T23:30:06.429Z,63.33
2022-10-17T23:35:10.059Z,58.92
2022-10-17T23:40:13.281Z,59.98
2022-10-17T23:45:16.042Z,65.00
2022-10-17T23:50:19.251Z,57.09
2022-10-17T23:55:21.990Z,60.36
